地図

経路データ

SID SEASON NUMBER BASIN SUBBASIN NAME ISO_TIME NATURE LAT LON WMO_WIND WMO_PRES WMO_AGENCY TRACK_TYPE DIST2LAND LANDFALL IFLAG USA_AGENCY USA_ATCF_ID USA_LAT USA_LON USA_RECORD USA_STATUS USA_WIND USA_PRES USA_SSHS USA_R34_NE USA_R34_SE USA_R34_SW USA_R34_NW USA_R50_NE USA_R50_SE USA_R50_SW USA_R50_NW USA_R64_NE USA_R64_SE USA_R64_SW USA_R64_NW USA_POCI USA_ROCI USA_RMW USA_EYE TOKYO_LAT TOKYO_LON TOKYO_GRADE TOKYO_WIND TOKYO_PRES TOKYO_R50_DIR TOKYO_R50_LONG TOKYO_R50_SHORT TOKYO_R30_DIR TOKYO_R30_LONG TOKYO_R30_SHORT TOKYO_LAND CMA_LAT CMA_LON CMA_CAT CMA_WIND CMA_PRES HKO_LAT HKO_LON HKO_CAT HKO_WIND HKO_PRES NEWDELHI_LAT NEWDELHI_LON NEWDELHI_GRADE NEWDELHI_WIND NEWDELHI_PRES NEWDELHI_CI NEWDELHI_DP NEWDELHI_POCI REUNION_LAT REUNION_LON REUNION_TYPE REUNION_WIND REUNION_PRES REUNION_TNUM REUNION_CI REUNION_RMW REUNION_R34_NE REUNION_R34_SE REUNION_R34_SW REUNION_R34_NW REUNION_R50_NE REUNION_R50_SE REUNION_R50_SW REUNION_R50_NW REUNION_R64_NE REUNION_R64_SE REUNION_R64_SW REUNION_R64_NW BOM_LAT BOM_LON BOM_TYPE BOM_WIND BOM_PRES BOM_TNUM BOM_CI BOM_RMW BOM_R34_NE BOM_R34_SE BOM_R34_SW BOM_R34_NW BOM_R50_NE BOM_R50_SE BOM_R50_SW BOM_R50_NW BOM_R64_NE BOM_R64_SE BOM_R64_SW BOM_R64_NW BOM_ROCI BOM_POCI BOM_EYE BOM_POS_METHOD BOM_PRES_METHOD NADI_LAT NADI_LON NADI_CAT NADI_WIND NADI_PRES WELLINGTON_LAT WELLINGTON_LON WELLINGTON_WIND WELLINGTON_PRES DS824_LAT DS824_LON DS824_STAGE DS824_WIND DS824_PRES TD9636_LAT TD9636_LON TD9636_STAGE TD9636_WIND TD9636_PRES TD9635_LAT TD9635_LON TD9635_WIND TD9635_PRES TD9635_ROCI NEUMANN_LAT NEUMANN_LON NEUMANN_CLASS NEUMANN_WIND NEUMANN_PRES MLC_LAT MLC_LON MLC_CLASS MLC_WIND MLC_PRES USA_GUST BOM_GUST BOM_GUST_PER REUNION_GUST REUNION_GUST_PER USA_SEAHGT USA_SEARAD_NE USA_SEARAD_SE USA_SEARAD_SW USA_SEARAD_NW STORM_SPEED STORM_DIR
1966269N19245 1966 87 EP MM KIRSTEN 1966-09-26 00:00:00 TS 18.5000 -115.000 25 hurdat_epa main 715 700 O________OO___ hurdat_epa EP111966 18.5000 -115.000 TD 25 -1 18.5000 -115.000 TC 25 18.5000 -115.000 1 5 6
1966269N19245 1966 87 EP MM KIRSTEN 1966-09-26 03:00:00 TS 18.7519 -114.997 main 692 677 P________PP___ EP111966 18.7500 -115.002 TD 25 -1 18.7500 -115.002 TC 25 18.7594 -114.975 1 5 3
1966269N19245 1966 87 EP MM KIRSTEN 1966-09-26 06:00:00 TS 19.0030 -114.992 25 hurdat_epa main 677 663 O________OP___ hurdat_epa EP111966 19.0000 -115.000 TD 25 -1 19.0000 -115.000 TC 25 19.0150 -114.960 1 5 0
1966269N19245 1966 87 EP MM KIRSTEN 1966-09-26 09:00:00 TS 19.2526 -114.987 main 656 642 P________PP___ EP111966 19.2500 -114.993 TD 25 -1 19.2500 -114.993 TC 25 19.2631 -114.965 1 5 358
1966269N19245 1966 87 EP MM KIRSTEN 1966-09-26 12:00:00 TS 19.5000 -115.000 25 hurdat_epa main 642 629 O________OO___ hurdat_epa EP111966 19.5000 -115.000 TD 25 -1 19.5000 -115.000 TC 25 19.5000 -115.000 1 5 353
1966269N19245 1966 87 EP MM KIRSTEN 1966-09-26 15:00:00 TS 19.7508 -115.048 main 620 606 P________PP___ EP111966 19.7575 -115.042 TD 25 -1 19.7575 -115.042 TC 25 19.7241 -115.068 1 5 348
1966269N19245 1966 87 EP MM KIRSTEN 1966-09-26 18:00:00 TS 19.9885 -115.109 25 hurdat_epa main 606 594 O________OP___ hurdat_epa EP111966 20.0000 -115.100 TD 25 -1 20.0000 -115.100 TC 25 19.9425 -115.144 1 5 344
1966269N19245 1966 87 EP MM KIRSTEN 1966-09-26 21:00:00 TS 20.1929 -115.178 main 594 576 P________PP___ EP111966 20.2000 -115.172 TD 25 -1 20.2000 -115.172 TC 25 20.1646 -115.199 1 4 348
1966269N19245 1966 87 EP MM KIRSTEN 1966-09-27 00:00:00 TS 20.4000 -115.200 25 hurdat_epa main 576 552 O________OO___ hurdat_epa EP111966 20.4000 -115.200 TD 25 -1 20.4000 -115.200 TC 25 20.4000 -115.200 1 5 4
1966269N19245 1966 87 EP MM KIRSTEN 1966-09-27 03:00:00 TS 20.6482 -115.138 main 552 518 P________PP___ EP111966 20.6350 -115.137 TD 25 -1 20.6350 -115.137 TC 25 20.7010 -115.140 1 6 19
1966269N19245 1966 87 EP MM KIRSTEN 1966-09-27 06:00:00 TS 20.9219 -115.004 25 hurdat_epa main 518 478 O________OP___ hurdat_epa EP111966 20.9000 -115.000 TD 25 -1 20.9000 -115.000 TC 25 21.0096 -115.021 1 7 25
1966269N19245 1966 87 EP MM KIRSTEN 1966-09-27 09:00:00 TS 21.2416 -114.838 main 478 439 P________PP___ EP111966 21.2299 -114.838 TD 25 -1 21.2299 -114.838 TC 25 21.2884 -114.841 1 7 33
1966269N19245 1966 87 EP MM KIRSTEN 1966-09-27 12:00:00 TS 21.5000 -114.600 25 hurdat_epa main 439 412 O________OO___ hurdat_epa EP111966 21.5000 -114.600 TD 25 -1 21.5000 -114.600 TC 25 21.5000 -114.600 1 6 57
1966269N19245 1966 87 EP MM KIRSTEN 1966-09-27 15:00:00 TS 21.5833 -114.275 main 412 388 P________PP___ EP111966 21.5950 -114.272 TD 25 -1 21.5950 -114.272 TC 25 21.5364 -114.286 1 7 83
1966269N19245 1966 87 EP MM KIRSTEN 1966-09-27 18:00:00 TS 21.5826 -113.904 25 hurdat_epa main 388 372 O________OP___ hurdat_epa EP111966 21.6000 -113.900 TD 25 -1 21.6000 -113.900 TC 25 21.5132 -113.921 1 7 92
1966269N19245 1966 87 EP MM KIRSTEN 1966-09-27 21:00:00 TS 21.5577 -113.537 main 367 352 P________PP___ EP111966 21.5700 -113.535 TD 25 -1 21.5700 -113.535 TC 25 21.5083 -113.545 1 7 88
1966269N19245 1966 87 EP MM KIRSTEN 1966-09-28 00:00:00 TS 21.6000 -113.200 25 hurdat_epa main 352 322 O________OO___ hurdat_epa EP111966 21.6000 -113.200 TD 25 -1 21.6000 -113.200 TC 25 21.6000 -113.200 1 6 68
1966269N19245 1966 87 EP MM KIRSTEN 1966-09-28 03:00:00 TS 21.7799 -112.947 main 316 277 P________PP___ EP111966 21.7674 -112.927 TD 35 0 21.7674 -112.927 TC 35 21.8296 -113.025 1 7 40
1966269N19245 1966 87 EP MM KIRSTEN 1966-09-28 06:00:00 TS 22.1145 -112.734 45 hurdat_epa main 277 225 O________OP___ hurdat_epa EP111966 22.1000 -112.700 TS 45 0 22.1000 -112.700 TC 45 22.1723 -112.871 1 9 22
1966269N19245 1966 87 EP MM KIRSTEN 1966-09-28 09:00:00 TS 22.5853 -112.590 main 225 151 P________PP___ EP111966 22.5744 -112.573 TS 45 0 22.5744 -112.573 TC 45 22.6289 -112.657 1 12 20
1966269N19245 1966 87 EP MM KIRSTEN 1966-09-28 12:00:00 TS 23.2000 -112.300 45 hurdat_epa main 151 56 O________OO___ hurdat_epa EP111966 23.2000 -112.300 TS 45 0 23.2000 -112.300 TC 45 23.2000 -112.300 2 16 33
1966269N19245 1966 87 EP MM KIRSTEN 1966-09-28 15:00:00 TS 23.9064 -111.660 main 56 0 P________PP___ EP111966 23.9130 -111.640 TS 45 0 23.9130 -111.640 TC 45 23.8804 -111.737 2 20 42
1966269N19245 1966 87 EP MM KIRSTEN 1966-09-28 18:00:00 TS 24.6912 -110.831 45 hurdat_epa main 0 0 O________OP___ hurdat_epa EP111966 24.7000 -110.800 TS 45 0 24.7000 -110.800 TC 45 24.6444 -110.997 2 22 45
1966269N19245 1966 87 EP MM KIRSTEN 1966-09-28 21:00:00 TS 25.4763 -109.942 main 54 0 P________PP___ EP111966 25.4783 -109.918 TS 45 0 25.4783 -109.918 TC 45 25.4611 -110.133 2 22 42
1966269N19245 1966 87 EP MM KIRSTEN 1966-09-29 00:00:00 TS 26.3000 -109.200 45 hurdat_epa main 9 0 O________OO___ hurdat_epa EP111966 26.3000 -109.200 TS 45 0 26.3000 -109.200 TC 45 26.3000 -109.200 2 20 30
1966269N19245 1966 87 EP MM KIRSTEN 1966-09-29 03:00:00 TS 27.1842 -108.842 main 0 0 P________P____ EP111966 27.1842 -108.842 TS 35 0 27.1842 -108.842 TC 35 2 18 11
1966269N19245 1966 87 EP MM KIRSTEN 1966-09-29 06:00:00 MX 28.1000 -108.800 25 hurdat_epa main 0 0 O________O____ hurdat_epa EP111966 28.1000 -108.800 TD 25 -1 28.1000 -108.800 25 2 18 356
1966269N19245 1966 87 EP MM KIRSTEN 1966-09-29 09:00:00 MX 29.0055 -108.989 main 0 0 P________P____ EP111966 29.0055 -108.989 TD 25 -1 29.0055 -108.989 25 2 19 346
1966269N19245 1966 87 EP MM KIRSTEN 1966-09-29 12:00:00 MX 29.9000 -109.300 25 hurdat_epa main 0 O________O____ hurdat_epa EP111966 29.9000 -109.300 TD 25 -1 29.9000 -109.300 25 19 343

IBTrACS Databaseについて

本データベースは、米国NOAAが公開する1842年以降の世界の熱帯低気圧のベストトラックデータアーカイブInternational Best Track Archive for Climate Stewardship (IBTrACS)を、ウェブで閲覧しやすい形式に変換したものです。

最終更新日:2021-11-26